New York City, New York
Current Conditions -  °F | °C
As of 7:51 PM on Saturday 22 Nov 2014 (Local Time) from KNYC Reporting Station
Broken Clouds Broken Clouds  
Wind Chill: 40°   Ceiling: 11000
Heat Index: 44°   Visibility: 10mi
Dew Point: 18°   Wind: 8mph
Humidity: 35%   Direction: 260°W
Pressure: 30.24"   Gusts: 17mph
Location:  40.71°N, 74.01°W
Report Text: KNYC 230051Z AUTO 26007G15KT 210V310 10SM SCT065 BKN110 07/M08 A3024 RMK AO2 SLP233 T00671078 $
Loading
Personal Weather Stations






























Interactive Weather Map New forecast layout! Learn more

10-Day Weather Forecast

Advertisements
Track Severe Weather on mobile